<?xml version="1.0" encoding="UTF-8" standalone="no" ?>
<gpx xmlns="http://www.topografix.com/GPX/1/1" xmlns:xsi="http://www.w3.org/2001/XMLSchema-instance" xsi:schemaLocation="http://www.topografix.com/GPX/1/1 http://www.topografix.com/GPX/1/1/gpx.xsd" version="1.1" creator="VisuGPX - https://www.visugpx.com">
  <metadata>
    <name>Villers en Fraises - 17-05-2026 - 3km</name>
  </metadata>
  <trk>
    <name><![CDATA[Villers-en-fraise 2026 - 2,950 km-23151776]]></name>
    <extensions>
      <line xmlns="http://www.topografix.com/GPX/gpx_style/0/2">
        <color>0000FF</color>
        <opacity>1</opacity>
        <width>4</width>
          <extensions>
            <sens>1</sens>
          </extensions>
      </line>
    </extensions>
    <trkseg>
      <trkpt lat="50.18919" lon="4.47221">
        <ele>255</ele>
        <time>2026-01-09T16:48:35Z</time>
      </trkpt>
      <trkpt lat="50.18927" lon="4.47231">
        <ele>255</ele>
        <time>2026-01-09T16:48:49Z</time>
      </trkpt>
      <trkpt lat="50.18942" lon="4.47251">
        <ele>256</ele>
        <time>2026-01-09T16:49:15Z</time>
      </trkpt>
      <trkpt lat="50.18968" lon="4.47292">
        <ele>256</ele>
        <time>2026-01-09T16:50:04Z</time>
      </trkpt>
      <trkpt lat="50.18972" lon="4.47309">
        <ele>256</ele>
        <time>2026-01-09T16:50:20Z</time>
      </trkpt>
      <trkpt lat="50.18957" lon="4.47321">
        <ele>256</ele>
        <time>2026-01-09T16:50:42Z</time>
      </trkpt>
      <trkpt lat="50.18926" lon="4.47349">
        <ele>255</ele>
        <time>2026-01-09T16:51:30Z</time>
      </trkpt>
      <trkpt lat="50.18888" lon="4.47387">
        <ele>253</ele>
        <time>2026-01-09T16:52:30Z</time>
      </trkpt>
      <trkpt lat="50.18873" lon="4.47413">
        <ele>252</ele>
        <time>2026-01-09T16:53:00Z</time>
      </trkpt>
      <trkpt lat="50.18855" lon="4.47486">
        <ele>247</ele>
        <time>2026-01-09T16:54:07Z</time>
      </trkpt>
      <trkpt lat="50.18844" lon="4.47512">
        <ele>245</ele>
        <time>2026-01-09T16:54:34Z</time>
      </trkpt>
      <trkpt lat="50.18812" lon="4.47547">
        <ele>242</ele>
        <time>2026-01-09T16:55:26Z</time>
      </trkpt>
      <trkpt lat="50.18795" lon="4.4758">
        <ele>241</ele>
        <time>2026-01-09T16:56:02Z</time>
      </trkpt>
      <trkpt lat="50.18824" lon="4.47623">
        <ele>240</ele>
        <time>2026-01-09T16:56:55Z</time>
      </trkpt>
      <trkpt lat="50.18855" lon="4.47701">
        <ele>241</ele>
        <time>2026-01-09T16:58:14Z</time>
      </trkpt>
      <trkpt lat="50.18863" lon="4.47727">
        <ele>242</ele>
        <time>2026-01-09T16:58:38Z</time>
      </trkpt>
      <trkpt lat="50.18865" lon="4.47739">
        <ele>242</ele>
        <time>2026-01-09T16:58:49Z</time>
      </trkpt>
      <trkpt lat="50.18867" lon="4.47755">
        <ele>242</ele>
        <time>2026-01-09T16:59:03Z</time>
      </trkpt>
      <trkpt lat="50.18868" lon="4.47776">
        <ele>242</ele>
        <time>2026-01-09T16:59:21Z</time>
      </trkpt>
      <trkpt lat="50.18882" lon="4.47784">
        <ele>243</ele>
        <time>2026-01-09T16:59:41Z</time>
      </trkpt>
      <trkpt lat="50.18898" lon="4.47827">
        <ele>245</ele>
        <time>2026-01-09T17:00:23Z</time>
      </trkpt>
      <trkpt lat="50.18905" lon="4.47859">
        <ele>246</ele>
        <time>2026-01-09T17:00:52Z</time>
      </trkpt>
      <trkpt lat="50.18913" lon="4.47882">
        <ele>248</ele>
        <time>2026-01-09T17:01:15Z</time>
      </trkpt>
      <trkpt lat="50.18915" lon="4.47908">
        <ele>249</ele>
        <time>2026-01-09T17:01:37Z</time>
      </trkpt>
      <trkpt lat="50.1893" lon="4.47908">
        <ele>249</ele>
        <time>2026-01-09T17:01:57Z</time>
      </trkpt>
      <trkpt lat="50.18949" lon="4.47908">
        <ele>249</ele>
        <time>2026-01-09T17:02:22Z</time>
      </trkpt>
      <trkpt lat="50.18968" lon="4.47973">
        <ele>251</ele>
        <time>2026-01-09T17:03:23Z</time>
      </trkpt>
      <trkpt lat="50.18984" lon="4.48027">
        <ele>253</ele>
        <time>2026-01-09T17:04:14Z</time>
      </trkpt>
      <trkpt lat="50.1901" lon="4.48019">
        <ele>253</ele>
        <time>2026-01-09T17:04:50Z</time>
      </trkpt>
      <trkpt lat="50.1904" lon="4.48019">
        <ele>252</ele>
        <time>2026-01-09T17:05:30Z</time>
      </trkpt>
      <trkpt lat="50.19064" lon="4.47981">
        <ele>251</ele>
        <time>2026-01-09T17:06:15Z</time>
      </trkpt>
      <trkpt lat="50.19073" lon="4.47936">
        <ele>252</ele>
        <time>2026-01-09T17:06:55Z</time>
      </trkpt>
      <trkpt lat="50.19092" lon="4.47913">
        <ele>253</ele>
        <time>2026-01-09T17:07:28Z</time>
      </trkpt>
      <trkpt lat="50.19299" lon="4.47703">
        <ele>273</ele>
        <time>2026-01-09T17:12:57Z</time>
      </trkpt>
      <trkpt lat="50.1934" lon="4.47678">
        <ele>275</ele>
        <time>2026-01-09T17:13:56Z</time>
      </trkpt>
      <trkpt lat="50.19377" lon="4.47642">
        <ele>277</ele>
        <time>2026-01-09T17:14:54Z</time>
      </trkpt>
      <trkpt lat="50.19467" lon="4.47546">
        <ele>282</ele>
        <time>2026-01-09T17:17:19Z</time>
      </trkpt>
      <trkpt lat="50.19523" lon="4.47486">
        <ele>283</ele>
        <time>2026-01-09T17:18:50Z</time>
      </trkpt>
      <trkpt lat="50.19583" lon="4.47446">
        <ele>283</ele>
        <time>2026-01-09T17:20:17Z</time>
      </trkpt>
      <trkpt lat="50.1965" lon="4.4738">
        <ele>284</ele>
        <time>2026-01-09T17:22:03Z</time>
      </trkpt>
      <trkpt lat="50.19642" lon="4.47242">
        <ele>283</ele>
        <time>2026-01-09T17:24:01Z</time>
      </trkpt>
      <trkpt lat="50.1961" lon="4.46826">
        <ele>283</ele>
        <time>2026-01-09T17:29:59Z</time>
      </trkpt>
      <trkpt lat="50.19524" lon="4.4689">
        <ele>284</ele>
        <time>2026-01-09T17:32:06Z</time>
      </trkpt>
      <trkpt lat="50.19494" lon="4.46925">
        <ele>285</ele>
        <time>2026-01-09T17:32:56Z</time>
      </trkpt>
      <trkpt lat="50.19429" lon="4.47022">
        <ele>284</ele>
        <time>2026-01-09T17:34:56Z</time>
      </trkpt>
      <trkpt lat="50.19392" lon="4.47053">
        <ele>282</ele>
        <time>2026-01-09T17:35:52Z</time>
      </trkpt>
      <trkpt lat="50.19353" lon="4.47092">
        <ele>280</ele>
        <time>2026-01-09T17:36:54Z</time>
      </trkpt>
      <trkpt lat="50.19239" lon="4.47208">
        <ele>273</ele>
        <time>2026-01-09T17:39:55Z</time>
      </trkpt>
      <trkpt lat="50.1906" lon="4.47252">
        <ele>261</ele>
        <time>2026-01-09T17:43:57Z</time>
      </trkpt>
      <trkpt lat="50.18996" lon="4.47292">
        <ele>257</ele>
        <time>2026-01-09T17:45:29Z</time>
      </trkpt>
      <trkpt lat="50.18972" lon="4.47309">
        <ele>256</ele>
        <time>2026-01-09T17:46:04Z</time>
      </trkpt>
      <trkpt lat="50.18968" lon="4.47292">
        <ele>256</ele>
        <time>2026-01-09T17:46:20Z</time>
      </trkpt>
      <trkpt lat="50.18942" lon="4.47251">
        <ele>256</ele>
        <time>2026-01-09T17:47:09Z</time>
      </trkpt>
      <trkpt lat="50.18927" lon="4.47231">
        <ele>255</ele>
        <time>2026-01-09T17:47:35Z</time>
      </trkpt>
    </trkseg>
  </trk>
</gpx>